createdAt,value
2018-04-07T00:00:31.891Z,8.80
2018-04-07T00:01:31.844Z,8.82
2018-04-07T00:02:31.789Z,8.82
2018-04-07T00:03:31.762Z,8.78
2018-04-07T00:04:31.722Z,8.78
2018-04-07T00:05:31.643Z,8.82
2018-04-07T00:06:31.596Z,8.82
2018-04-07T00:07:31.547Z,8.77
2018-04-07T00:08:31.526Z,8.82
2018-04-07T00:09:31.447Z,8.77
2018-04-07T00:10:31.405Z,8.81
2018-04-07T00:11:31.354Z,8.77
2018-04-07T00:12:31.306Z,8.80
2018-04-07T00:13:31.305Z,8.82
2018-04-07T00:14:31.210Z,8.78
2018-04-07T00:15:31.163Z,8.81
2018-04-07T00:16:31.113Z,8.77
2018-04-07T00:17:31.062Z,8.77
2018-04-07T00:18:31.037Z,8.80
2018-04-07T00:19:30.971Z,8.70
2018-04-07T00:20:31.007Z,8.80
2018-04-07T00:21:30.870Z,8.75
2018-04-07T00:22:30.823Z,8.81
2018-04-07T00:23:30.805Z,8.77
2018-04-07T00:24:30.762Z,8.66
2018-04-07T00:25:30.681Z,8.67
2018-04-07T00:26:30.630Z,8.60
2018-04-07T00:27:30.582Z,8.67
2018-04-07T00:28:30.559Z,8.72
2018-04-07T00:29:30.485Z,8.72
2018-04-07T00:30:30.434Z,8.62
2018-04-07T00:31:30.384Z,8.62
2018-04-07T00:32:30.368Z,8.64
2018-04-07T00:33:30.315Z,8.64
2018-04-07T00:34:30.245Z,8.63
2018-04-07T00:35:30.207Z,8.55
2018-04-07T00:36:30.148Z,8.60
2018-04-07T00:37:30.103Z,8.55
2018-04-07T00:38:30.077Z,8.52
2018-04-07T00:39:30.001Z,8.54
2018-04-07T00:40:29.948Z,8.57
2018-04-07T00:41:29.900Z,8.55
2018-04-07T00:42:29.860Z,8.54
2018-04-07T00:43:29.833Z,8.51
2018-04-07T00:44:29.756Z,8.47
2018-04-07T00:45:29.707Z,8.41
2018-04-07T00:46:29.687Z,8.51
2018-04-07T00:47:29.611Z,8.47
2018-04-07T00:48:29.592Z,8.42
2018-04-07T00:49:29.517Z,8.54
2018-04-07T00:50:29.466Z,8.51
2018-04-07T00:51:29.416Z,8.52
2018-04-07T00:52:29.408Z,8.54
2018-04-07T00:53:29.346Z,8.47
2018-04-07T00:54:29.276Z,8.54
2018-04-07T00:55:29.228Z,8.47
2018-04-07T00:56:29.196Z,8.47
2018-04-07T00:57:29.127Z,8.52
2018-04-07T00:58:29.109Z,8.44
2018-04-07T00:59:29.030Z,8.45
2018-04-07T01:00:28.986Z,8.45
2018-04-07T01:01:28.957Z,8.44
2018-04-07T01:02:28.884Z,8.42
2018-04-07T01:03:28.859Z,8.29
2018-04-07T01:04:28.788Z,8.41
2018-04-07T01:05:28.744Z,8.42
2018-04-07T01:06:28.691Z,8.33
2018-04-07T01:07:28.644Z,8.34
2018-04-07T01:08:28.620Z,8.42
2018-04-07T01:09:28.550Z,8.30
2018-04-07T01:10:28.499Z,8.36
2018-04-07T01:11:28.448Z,8.38
2018-04-07T01:12:28.404Z,8.27
2018-04-07T01:13:28.378Z,8.26
2018-04-07T01:14:28.301Z,8.34
2018-04-07T01:15:28.253Z,8.31
2018-04-07T01:16:28.205Z,8.30
2018-04-07T01:17:28.161Z,8.31
2018-04-07T01:18:28.132Z,8.26
2018-04-07T01:19:28.101Z,8.27
2018-04-07T01:20:28.037Z,8.23
2018-04-07T01:21:27.974Z,8.23
2018-04-07T01:22:27.920Z,8.33
2018-04-07T01:23:27.906Z,8.29
2018-04-07T01:24:27.825Z,8.26
2018-04-07T01:25:27.772Z,8.30
2018-04-07T01:26:27.720Z,8.23
2018-04-07T01:27:27.704Z,8.23
2018-04-07T01:28:27.639Z,8.21
2018-04-07T01:29:27.599Z,8.23
2018-04-07T01:30:27.525Z,8.09
2018-04-07T01:31:27.481Z,8.13
2018-04-07T01:32:27.429Z,8.09
2018-04-07T01:33:27.375Z,8.11
2018-04-07T01:34:27.365Z,8.06
2018-04-07T01:35:27.283Z,8.13
2018-04-07T01:36:27.232Z,8.12
2018-04-07T01:37:27.193Z,8.09
2018-04-07T01:38:27.135Z,8.11
2018-04-07T01:39:27.114Z,8.13
2018-04-07T01:40:27.042Z,8.13
2018-04-07T01:41:26.989Z,8.11
2018-04-07T01:42:26.971Z,8.12
2018-04-07T01:43:26.896Z,8.11
2018-04-07T01:44:26.873Z,8.11
2018-04-07T01:45:26.793Z,8.16
2018-04-07T01:46:26.749Z,8.13
2018-04-07T01:47:26.712Z,8.12
2018-04-07T01:48:26.662Z,8.11
2018-04-07T01:49:26.622Z,8.11
2018-04-07T01:50:26.551Z,8.15
2018-04-07T01:51:26.517Z,8.08
2018-04-07T01:52:26.472Z,8.05
2018-04-07T01:53:26.407Z,8.08
2018-04-07T01:54:26.527Z,8.06
2018-04-07T01:55:26.309Z,8.02
2018-04-07T01:56:26.303Z,8.06
2018-04-07T01:57:26.216Z,8.08
2018-04-07T01:58:26.162Z,7.98
2018-04-07T01:59:26.136Z,8.04
2018-04-07T02:00:26.064Z,8.06
2018-04-07T02:01:26.014Z,7.96
2018-04-07T02:02:25.966Z,8.01
2018-04-07T02:03:25.923Z,8.04
2018-04-07T02:04:25.892Z,8.01
2018-04-07T02:05:25.821Z,8.05
2018-04-07T02:06:25.828Z,7.98
2018-04-07T02:07:25.726Z,7.98
2018-04-07T02:08:25.676Z,8.01
2018-04-07T02:09:25.652Z,7.96
2018-04-07T02:10:25.580Z,8.04
2018-04-07T02:11:25.527Z,7.90
2018-04-07T02:12:25.480Z,7.96
2018-04-07T02:13:25.436Z,7.93
2018-04-07T02:14:25.433Z,7.91
2018-04-07T02:15:25.332Z,7.96
2018-04-07T02:16:25.286Z,7.88
2018-04-07T02:17:25.236Z,7.91
2018-04-07T02:18:25.194Z,7.88
2018-04-07T02:19:25.208Z,7.86
2018-04-07T02:20:25.091Z,7.79
2018-04-07T02:21:25.052Z,7.87
2018-04-07T02:22:24.991Z,7.78
2018-04-07T02:23:24.952Z,7.83
2018-04-07T02:24:24.921Z,7.84
2018-04-07T02:25:24.851Z,7.83
2018-04-07T02:26:24.809Z,7.79
2018-04-07T02:27:24.748Z,7.83
2018-04-07T02:28:24.700Z,7.83
2018-04-07T02:29:24.680Z,7.83
2018-04-07T02:30:24.602Z,7.91
2018-04-07T02:31:24.552Z,7.80
2018-04-07T02:32:24.525Z,7.75
2018-04-07T02:33:24.465Z,7.75
2018-04-07T02:34:24.441Z,7.72
2018-04-07T02:35:24.361Z,7.73
2018-04-07T02:36:24.313Z,7.83
2018-04-07T02:37:24.260Z,7.83
2018-04-07T02:38:24.216Z,7.73
2018-04-07T02:39:24.185Z,7.73
2018-04-07T02:40:24.167Z,7.86
2018-04-07T02:41:24.071Z,7.70
2018-04-07T02:42:24.016Z,7.73
2018-04-07T02:43:23.974Z,7.70
2018-04-07T02:44:23.945Z,7.69
2018-04-07T02:45:23.868Z,7.73
2018-04-07T02:46:23.824Z,7.73
2018-04-07T02:47:23.808Z,7.75
2018-04-07T02:48:23.726Z,7.64
2018-04-07T02:49:23.704Z,7.64
2018-04-07T02:50:23.643Z,7.60
2018-04-07T02:51:23.593Z,7.59
2018-04-07T02:52:23.524Z,7.66
2018-04-07T02:53:23.499Z,7.62
2018-04-07T02:54:23.451Z,7.64
2018-04-07T02:55:23.384Z,7.72
2018-04-07T02:56:23.333Z,7.66
2018-04-07T02:57:23.287Z,7.57
2018-04-07T02:58:30.341Z,7.62
2018-04-07T02:59:23.210Z,7.52
2018-04-07T03:00:23.143Z,7.56
2018-04-07T03:01:23.086Z,7.59
2018-04-07T03:02:23.041Z,7.53
2018-04-07T03:03:22.992Z,7.54
2018-04-07T03:04:22.976Z,7.44
2018-04-07T03:05:22.892Z,7.59
2018-04-07T03:06:22.844Z,7.57
2018-04-07T03:07:22.790Z,7.57
2018-04-07T03:08:22.749Z,7.54
2018-04-07T03:09:22.724Z,7.62
2018-04-07T03:10:22.646Z,7.52
2018-04-07T03:11:22.598Z,7.44
2018-04-07T03:12:22.549Z,7.53
2018-04-07T03:13:22.503Z,7.46
2018-04-07T03:14:22.471Z,7.52
2018-04-07T03:15:22.415Z,7.47
2018-04-07T03:16:22.353Z,7.53
2018-04-07T03:17:22.303Z,7.52
2018-04-07T03:18:22.251Z,7.54
2018-04-07T03:19:22.226Z,7.52
2018-04-07T03:20:22.154Z,7.47
2018-04-07T03:21:22.108Z,7.42
2018-04-07T03:22:22.055Z,7.47
2018-04-07T03:23:22.008Z,7.52
2018-04-07T03:24:21.984Z,7.49
2018-04-07T03:25:21.914Z,7.52
2018-04-07T03:26:21.861Z,7.56
2018-04-07T03:27:21.814Z,7.54
2018-04-07T03:28:21.765Z,7.56
2018-04-07T03:29:21.737Z,7.42
2018-04-07T03:30:29.716Z,7.52
2018-04-07T03:31:21.624Z,7.54
2018-04-07T03:32:21.563Z,7.56
2018-04-07T03:33:21.518Z,7.44
2018-04-07T03:34:21.490Z,7.47
2018-04-07T03:35:21.425Z,7.46
2018-04-07T03:36:21.368Z,7.42
2018-04-07T03:37:21.323Z,7.47
2018-04-07T03:38:21.268Z,7.47
2018-04-07T03:39:21.249Z,7.42
2018-04-07T03:40:21.171Z,7.47
2018-04-07T03:41:21.120Z,7.52
2018-04-07T03:42:21.076Z,7.47
2018-04-07T03:43:21.022Z,7.49
2018-04-07T03:44:20.997Z,7.46
2018-04-07T03:45:20.922Z,7.47
2018-04-07T03:46:20.877Z,7.44
2018-04-07T03:47:20.826Z,7.47
2018-04-07T03:48:20.783Z,7.47
2018-04-07T03:49:20.778Z,7.50
2018-04-07T03:50:20.676Z,7.47
2018-04-07T03:51:20.629Z,7.47
2018-04-07T03:52:20.590Z,7.44
2018-04-07T03:53:20.536Z,7.42
2018-04-07T03:54:20.505Z,7.47
2018-04-07T03:55:20.426Z,7.44
2018-04-07T03:56:20.386Z,7.49
2018-04-07T03:57:20.336Z,7.47
2018-04-07T03:58:20.286Z,7.46
2018-04-07T03:59:20.263Z,7.50
2018-04-07T04:00:20.182Z,7.50
2018-04-07T04:01:20.142Z,7.44
2018-04-07T04:02:20.090Z,7.50
2018-04-07T04:03:20.048Z,7.44
2018-04-07T04:04:20.016Z,7.46
2018-04-07T04:05:19.938Z,7.39
2018-04-07T04:06:19.892Z,7.49
2018-04-07T04:07:19.860Z,7.44
2018-04-07T04:08:19.795Z,7.52
2018-04-07T04:09:19.766Z,7.39
2018-04-07T04:10:19.699Z,7.42
2018-04-07T04:11:19.650Z,7.44
2018-04-07T04:12:19.596Z,7.50
2018-04-07T04:13:19.551Z,7.50
2018-04-07T04:14:19.528Z,7.47
2018-04-07T04:15:19.454Z,7.46
2018-04-07T04:16:19.409Z,7.42
2018-04-07T04:17:19.349Z,7.47
2018-04-07T04:18:19.308Z,7.47
2018-04-07T04:19:26.326Z,7.49
2018-04-07T04:20:19.206Z,7.50
2018-04-07T04:21:19.156Z,7.46
2018-04-07T04:22:19.104Z,7.46
2018-04-07T04:23:19.093Z,7.47
2018-04-07T04:24:19.006Z,7.42
2018-04-07T04:25:18.980Z,7.44
2018-04-07T04:26:18.912Z,7.44
2018-04-07T04:27:18.859Z,7.41
2018-04-07T04:28:18.815Z,7.42
2018-04-07T04:29:18.761Z,7.46
2018-04-07T04:30:18.756Z,7.36
2018-04-07T04:31:18.685Z,7.46
2018-04-07T04:32:18.616Z,7.44
2018-04-07T04:33:18.563Z,7.41
2018-04-07T04:34:18.515Z,7.49
2018-04-07T04:35:18.496Z,7.47
2018-04-07T04:36:18.445Z,7.46
2018-04-07T04:37:18.366Z,7.49
2018-04-07T04:38:18.317Z,7.47
2018-04-07T04:39:18.271Z,7.54
2018-04-07T04:40:18.241Z,7.56
2018-04-07T04:41:18.171Z,7.46
2018-04-07T04:42:18.125Z,7.50
2018-04-07T04:43:18.073Z,7.50
2018-04-07T04:44:18.039Z,7.54
2018-04-07T04:45:17.997Z,7.53
2018-04-07T04:46:17.927Z,7.42
2018-04-07T04:47:17.878Z,7.52
2018-04-07T04:48:17.831Z,7.56
2018-04-07T04:49:17.779Z,7.50
2018-04-07T04:50:17.750Z,7.47
2018-04-07T04:51:17.676Z,7.46
2018-04-07T04:52:17.630Z,7.46
2018-04-07T04:53:17.578Z,7.49
2018-04-07T04:54:17.539Z,7.53
2018-04-07T04:55:17.501Z,7.60
2018-04-07T04:56:17.432Z,7.47
2018-04-07T04:57:17.380Z,7.50
2018-04-07T04:58:17.331Z,7.49
2018-04-07T04:59:17.287Z,7.54
2018-04-07T05:00:17.255Z,7.62
2018-04-07T05:01:17.184Z,7.54
2018-04-07T05:02:17.136Z,7.56
2018-04-07T05:03:17.086Z,7.56
2018-04-07T05:04:17.039Z,7.57
2018-04-07T05:05:17.009Z,7.53
2018-04-07T05:06:16.940Z,7.59
2018-04-07T05:07:16.892Z,7.62
2018-04-07T05:08:16.837Z,7.59
2018-04-07T05:09:16.790Z,7.60
2018-04-07T05:10:16.764Z,7.72
2018-04-07T05:11:16.691Z,7.62
2018-04-07T05:12:16.650Z,7.72
2018-04-07T05:13:16.596Z,7.73
2018-04-07T05:14:16.545Z,7.69
2018-04-07T05:15:16.516Z,7.68
2018-04-07T05:16:16.442Z,7.68
2018-04-07T05:17:16.398Z,7.78
2018-04-07T05:18:16.362Z,7.72
2018-04-07T05:19:16.308Z,7.80
2018-04-07T05:20:16.273Z,7.79
2018-04-07T05:21:16.205Z,7.86
2018-04-07T05:22:16.154Z,7.87
2018-04-07T05:23:16.125Z,7.87
2018-04-07T05:24:16.068Z,7.90
2018-04-07T05:25:16.044Z,7.86
2018-04-07T05:26:15.958Z,7.94
2018-04-07T05:27:15.908Z,8.01
2018-04-07T05:28:15.857Z,8.02
2018-04-07T05:29:15.817Z,7.97
2018-04-07T05:30:15.785Z,8.01
2018-04-07T05:31:15.706Z,7.94
2018-04-07T05:32:15.659Z,7.98
2018-04-07T05:33:15.614Z,7.98
2018-04-07T05:34:15.567Z,7.98
2018-04-07T05:35:15.543Z,8.01
2018-04-07T05:36:15.473Z,8.05
2018-04-07T05:37:15.421Z,8.01
2018-04-07T05:38:15.371Z,7.96
2018-04-07T05:39:15.320Z,7.97
2018-04-07T05:40:15.289Z,8.08
2018-04-07T05:41:15.218Z,8.06
2018-04-07T05:42:15.168Z,8.09
2018-04-07T05:43:15.122Z,8.13
2018-04-07T05:44:15.075Z,8.09
2018-04-07T05:45:15.050Z,8.09
2018-04-07T05:46:14.972Z,8.12
2018-04-07T05:47:14.925Z,8.18
2018-04-07T05:48:14.889Z,8.24
2018-04-07T05:49:14.834Z,8.15
2018-04-07T05:50:14.811Z,8.24
2018-04-07T05:51:14.732Z,8.29
2018-04-07T05:52:14.685Z,8.33
2018-04-07T05:53:14.633Z,8.30
2018-04-07T05:54:14.582Z,8.29
2018-04-07T05:55:14.558Z,8.24
2018-04-07T05:56:14.488Z,8.26
2018-04-07T05:57:14.440Z,8.33
2018-04-07T05:58:14.387Z,8.29
2018-04-07T05:59:14.341Z,8.29
2018-04-07T06:00:14.322Z,8.30
2018-04-07T06:01:14.240Z,8.36
2018-04-07T06:02:14.194Z,8.38
2018-04-07T06:03:14.150Z,8.44
2018-04-07T06:04:14.096Z,8.42
2018-04-07T06:05:14.069Z,8.49
2018-04-07T06:06:14.005Z,8.41
2018-04-07T06:07:13.957Z,8.59
2018-04-07T06:08:13.899Z,8.59
2018-04-07T06:09:13.864Z,8.60
2018-04-07T06:10:13.826Z,8.66
2018-04-07T06:11:13.765Z,8.72
2018-04-07T06:12:13.711Z,8.80
2018-04-07T06:13:13.661Z,8.81
2018-04-07T06:14:13.607Z,8.80
2018-04-07T06:15:13.578Z,8.93
2018-04-07T06:16:13.514Z,8.98
2018-04-07T06:17:13.462Z,9.10
2018-04-07T06:18:13.410Z,9.16
2018-04-07T06:19:13.365Z,9.34
2018-04-07T06:20:13.342Z,9.46
2018-04-07T06:21:13.269Z,9.51
2018-04-07T06:22:13.222Z,9.61
2018-04-07T06:23:13.175Z,9.70
2018-04-07T06:24:13.141Z,9.80
2018-04-07T06:25:13.106Z,9.85
2018-04-07T06:26:13.027Z,9.95
2018-04-07T06:27:13.002Z,10.00
2018-04-07T06:28:12.933Z,10.12
2018-04-07T06:29:12.888Z,10.19
2018-04-07T06:30:12.869Z,10.30
2018-04-07T06:31:12.791Z,10.46
2018-04-07T06:32:12.750Z,10.46
2018-04-07T06:33:12.698Z,10.52
2018-04-07T06:34:12.648Z,10.53
2018-04-07T06:35:12.623Z,10.67
2018-04-07T06:36:12.555Z,10.72
2018-04-07T06:37:12.509Z,10.67
2018-04-07T06:38:12.460Z,10.82
2018-04-07T06:39:12.533Z,10.86
2018-04-07T06:40:12.393Z,10.90
2018-04-07T06:41:12.323Z,10.95
2018-04-07T06:42:12.270Z,11.01
2018-04-07T06:43:12.224Z,11.01
2018-04-07T06:44:12.177Z,11.12
2018-04-07T06:45:12.185Z,11.15
2018-04-07T06:46:12.085Z,11.25
2018-04-07T06:47:12.035Z,11.26
2018-04-07T06:48:11.987Z,11.33
2018-04-07T06:49:11.941Z,11.43
2018-04-07T06:50:19.156Z,11.46
2018-04-07T06:51:11.847Z,11.43
2018-04-07T06:52:11.801Z,11.51
2018-04-07T06:53:11.754Z,11.56
2018-04-07T06:54:11.705Z,11.58
2018-04-07T06:55:11.665Z,11.59
2018-04-07T06:56:11.648Z,11.63
2018-04-07T06:57:11.565Z,11.58
2018-04-07T06:58:11.519Z,11.58
2018-04-07T06:59:11.477Z,11.58
2018-04-07T07:00:11.429Z,11.63
2018-04-07T07:01:11.416Z,11.63
2018-04-07T07:02:11.331Z,11.74
2018-04-07T07:03:11.288Z,11.86
2018-04-07T07:04:11.245Z,11.80
2018-04-07T07:05:11.205Z,11.87
2018-04-07T07:06:11.174Z,11.97
2018-04-07T07:07:11.105Z,12.07
2018-04-07T07:08:11.056Z,12.09
2018-04-07T07:09:11.011Z,12.13
2018-04-07T07:10:10.961Z,12.17
2018-04-07T07:11:10.940Z,12.18
2018-04-07T07:12:10.875Z,12.07
2018-04-07T07:13:10.822Z,12.20
2018-04-07T07:14:10.784Z,12.21
2018-04-07T07:15:10.732Z,12.25
2018-04-07T07:16:10.710Z,12.39
2018-04-07T07:17:10.641Z,12.35
2018-04-07T07:18:10.591Z,12.33
2018-04-07T07:19:10.550Z,12.43
2018-04-07T07:20:10.499Z,12.42
2018-04-07T07:21:10.478Z,12.57
2018-04-07T07:22:10.416Z,12.63
2018-04-07T07:23:10.360Z,12.63
2018-04-07T07:24:10.316Z,12.76
2018-04-07T07:25:10.272Z,12.76
2018-04-07T07:26:10.246Z,12.90
2018-04-07T07:27:10.176Z,12.90
2018-04-07T07:28:10.131Z,12.87
2018-04-07T07:29:10.087Z,13.01
2018-04-07T07:30:10.058Z,12.96
2018-04-07T07:31:10.020Z,13.01
2018-04-07T07:32:09.953Z,13.09
2018-04-07T07:33:09.904Z,13.01
2018-04-07T07:34:09.859Z,13.13
2018-04-07T07:35:09.824Z,13.00
2018-04-07T07:36:09.795Z,13.09
2018-04-07T07:37:09.727Z,13.12
2018-04-07T07:38:09.675Z,13.03
2018-04-07T07:39:09.630Z,13.15
2018-04-07T07:40:09.602Z,13.11
2018-04-07T07:41:09.567Z,13.19
2018-04-07T07:42:09.496Z,13.24
2018-04-07T07:43:09.447Z,13.24
2018-04-07T07:44:09.405Z,13.31
2018-04-07T07:45:09.357Z,13.30
2018-04-07T07:46:09.340Z,13.33
2018-04-07T07:47:09.266Z,13.35
2018-04-07T07:48:09.222Z,13.46
2018-04-07T07:49:09.178Z,13.43
2018-04-07T07:50:09.129Z,13.52
2018-04-07T07:51:09.107Z,13.46
2018-04-07T07:52:09.040Z,13.47
2018-04-07T07:53:09.002Z,13.47
2018-04-07T07:54:08.949Z,13.47
2018-04-07T07:55:08.900Z,13.46
2018-04-07T07:56:08.881Z,13.43
2018-04-07T07:57:08.810Z,13.49
2018-04-07T07:58:08.766Z,13.49
2018-04-07T07:59:08.729Z,13.50
2018-04-07T08:00:08.682Z,13.65
2018-04-07T08:01:08.685Z,13.71
2018-04-07T08:02:08.584Z,13.68
2018-04-07T08:03:08.544Z,13.72
2018-04-07T08:04:08.496Z,13.74
2018-04-07T08:05:08.448Z,13.70
2018-04-07T08:06:08.424Z,13.70
2018-04-07T08:07:08.363Z,13.75
2018-04-07T08:08:08.316Z,13.85
2018-04-07T08:09:08.272Z,13.93
2018-04-07T08:10:08.220Z,13.89
2018-04-07T08:11:08.221Z,13.90
2018-04-07T08:12:08.131Z,13.95
2018-04-07T08:13:08.090Z,13.96
2018-04-07T08:14:08.040Z,14.00
2018-04-07T08:15:08.002Z,14.00
2018-04-07T08:16:07.974Z,13.97
2018-04-07T08:17:07.911Z,13.93
2018-04-07T08:18:07.859Z,14.05
2018-04-07T08:19:07.835Z,14.07
2018-04-07T08:20:07.772Z,14.10
2018-04-07T08:21:07.747Z,14.23
2018-04-07T08:22:07.689Z,14.26
2018-04-07T08:23:07.636Z,14.29
2018-04-07T08:24:07.593Z,14.37
2018-04-07T08:25:07.548Z,14.29
2018-04-07T08:26:07.544Z,14.40
2018-04-07T08:27:07.457Z,14.40
2018-04-07T08:28:07.410Z,14.45
2018-04-07T08:29:07.368Z,14.47
2018-04-07T08:30:07.320Z,14.59
2018-04-07T08:31:07.298Z,14.56
2018-04-07T08:32:07.274Z,14.65
2018-04-07T08:33:07.186Z,14.81
2018-04-07T08:34:07.143Z,14.81
2018-04-07T08:35:07.098Z,14.84
2018-04-07T08:36:07.075Z,14.93
2018-04-07T08:37:07.008Z,14.99
2018-04-07T08:38:06.970Z,14.95
2018-04-07T08:39:06.917Z,14.93
2018-04-07T08:40:06.874Z,15.00
2018-04-07T08:41:06.860Z,14.99
2018-04-07T08:42:06.785Z,15.02
2018-04-07T08:43:06.742Z,15.03
2018-04-07T08:44:06.697Z,14.99
2018-04-07T08:45:06.650Z,14.99
2018-04-07T08:46:06.625Z,15.12
2018-04-07T08:47:06.560Z,15.12
2018-04-07T08:48:06.516Z,15.15
2018-04-07T08:49:06.471Z,15.22
2018-04-07T08:50:06.427Z,15.19
2018-04-07T08:51:06.425Z,15.18
2018-04-07T08:52:06.338Z,15.27
2018-04-07T08:53:06.294Z,15.42
2018-04-07T08:54:06.248Z,15.37
2018-04-07T08:55:06.207Z,15.30
2018-04-07T08:56:06.202Z,15.37
2018-04-07T08:57:06.131Z,15.54
2018-04-07T08:58:06.069Z,15.44
2018-04-07T08:59:06.028Z,15.46
2018-04-07T09:00:06.086Z,15.52
2018-04-07T09:01:05.960Z,15.55
2018-04-07T09:02:05.893Z,15.51
2018-04-07T09:03:05.851Z,15.54
2018-04-07T09:04:05.808Z,15.57
2018-04-07T09:05:05.769Z,15.60
2018-04-07T09:06:05.766Z,15.58
2018-04-07T09:07:05.677Z,15.58
2018-04-07T09:08:05.634Z,15.60
2018-04-07T09:09:05.585Z,15.52
2018-04-07T09:10:05.539Z,15.55
2018-04-07T09:11:05.522Z,15.60
2018-04-07T09:12:05.449Z,15.60
2018-04-07T09:13:05.404Z,15.60
2018-04-07T09:14:05.363Z,15.73
2018-04-07T09:15:05.319Z,15.68
2018-04-07T09:16:05.298Z,15.73
2018-04-07T09:17:05.229Z,15.69
2018-04-07T09:18:05.208Z,15.85
2018-04-07T09:19:05.141Z,15.82
2018-04-07T09:20:05.097Z,15.82
2018-04-07T09:21:05.078Z,15.79
2018-04-07T09:22:05.009Z,15.92
2018-04-07T09:23:04.968Z,15.91
2018-04-07T09:24:04.924Z,15.94
2018-04-07T09:25:04.878Z,16.06
2018-04-07T09:26:04.854Z,15.98
2018-04-07T09:27:04.789Z,16.08
2018-04-07T09:28:04.743Z,16.09
2018-04-07T09:29:04.704Z,16.05
2018-04-07T09:30:04.659Z,16.08
2018-04-07T09:31:04.640Z,16.06
2018-04-07T09:32:04.572Z,16.21
2018-04-07T09:33:04.524Z,16.15
2018-04-07T09:34:04.480Z,16.31
2018-04-07T09:35:04.433Z,16.16
2018-04-07T09:36:04.391Z,16.35
2018-04-07T09:37:04.374Z,16.36
2018-04-07T09:38:04.304Z,16.29
2018-04-07T09:39:04.262Z,16.34
2018-04-07T09:40:04.219Z,16.34
2018-04-07T09:41:04.176Z,16.38
2018-04-07T09:42:04.161Z,16.34
2018-04-07T09:43:04.082Z,16.39
2018-04-07T09:44:04.042Z,16.49
2018-04-07T09:45:03.999Z,16.44
2018-04-07T09:46:03.953Z,16.43
2018-04-07T09:47:03.932Z,16.53
2018-04-07T09:48:03.868Z,16.54
2018-04-07T09:49:03.822Z,16.61
2018-04-07T09:50:03.776Z,16.64
2018-04-07T09:51:03.734Z,16.68
2018-04-07T09:52:03.718Z,16.79
2018-04-07T09:53:03.645Z,16.76
2018-04-07T09:54:03.607Z,16.84
2018-04-07T09:55:03.558Z,16.84
2018-04-07T09:56:03.514Z,16.87
2018-04-07T09:57:03.501Z,16.99
2018-04-07T09:58:03.429Z,17.01
2018-04-07T09:59:03.378Z,16.96
2018-04-07T10:00:03.340Z,17.02
2018-04-07T10:01:03.295Z,17.04
2018-04-07T10:02:03.274Z,16.99
2018-04-07T10:03:03.208Z,17.02
2018-04-07T10:04:03.164Z,17.08
2018-04-07T10:05:03.127Z,17.09
2018-04-07T10:06:03.084Z,17.23
2018-04-07T10:07:03.063Z,17.31
2018-04-07T10:08:02.995Z,17.26
2018-04-07T10:09:02.951Z,17.41
2018-04-07T10:10:02.908Z,17.33
2018-04-07T10:11:02.864Z,17.38
2018-04-07T10:12:02.845Z,17.57
2018-04-07T10:13:02.772Z,17.51
2018-04-07T10:14:02.732Z,17.57
2018-04-07T10:15:02.685Z,17.65
2018-04-07T10:16:02.649Z,17.65
2018-04-07T10:17:02.623Z,17.73
2018-04-07T10:18:02.558Z,17.80
2018-04-07T10:19:02.510Z,17.82
2018-04-07T10:20:02.474Z,17.80
2018-04-07T10:21:02.423Z,17.80
2018-04-07T10:22:02.406Z,17.79
2018-04-07T10:23:02.347Z,17.80
2018-04-07T10:24:02.310Z,17.76
2018-04-07T10:25:02.254Z,17.79
2018-04-07T10:26:02.209Z,17.82
2018-04-07T10:27:02.191Z,17.80
2018-04-07T10:28:02.126Z,17.86
2018-04-07T10:29:02.085Z,17.91
2018-04-07T10:30:02.043Z,18.00
2018-04-07T10:31:02.001Z,18.04
2018-04-07T10:32:01.980Z,18.13
2018-04-07T10:33:01.927Z,18.26
2018-04-07T10:34:01.909Z,18.22
2018-04-07T10:35:01.852Z,18.31
2018-04-07T10:36:01.783Z,18.38
2018-04-07T10:37:01.765Z,18.46
2018-04-07T10:38:01.693Z,18.46
2018-04-07T10:39:01.654Z,18.41
2018-04-07T10:40:01.615Z,18.52
2018-04-07T10:41:01.563Z,18.58
2018-04-07T10:42:01.546Z,18.56
2018-04-07T10:43:01.486Z,18.59
2018-04-07T10:44:01.438Z,18.62
2018-04-07T10:45:01.398Z,18.63
2018-04-07T10:46:01.353Z,18.60
2018-04-07T10:47:01.332Z,18.60
2018-04-07T10:48:01.265Z,18.67
2018-04-07T10:49:01.232Z,18.63
2018-04-07T10:50:01.189Z,18.66
2018-04-07T10:51:01.142Z,18.70
2018-04-07T10:52:01.123Z,18.73
2018-04-07T10:53:01.056Z,18.70
2018-04-07T10:54:01.010Z,18.71
2018-04-07T10:55:00.981Z,18.67
2018-04-07T10:56:00.926Z,18.71
2018-04-07T10:57:00.910Z,18.75
2018-04-07T10:58:00.840Z,18.74
2018-04-07T10:59:00.808Z,18.70
2018-04-07T11:00:00.762Z,18.74
2018-04-07T11:01:00.720Z,18.78
2018-04-07T11:02:00.706Z,18.83
2018-04-07T11:03:00.752Z,18.73
2018-04-07T11:04:00.588Z,18.74
2018-04-07T11:05:00.543Z,18.81
2018-04-07T11:06:00.647Z,18.88
2018-04-07T11:07:00.488Z,18.81
2018-04-07T11:08:00.415Z,18.80
2018-04-07T11:09:00.393Z,18.81
2018-04-07T11:10:00.335Z,18.81
2018-04-07T11:11:00.298Z,18.92
2018-04-07T11:12:00.273Z,18.92
2018-04-07T11:13:00.208Z,18.99
2018-04-07T11:14:00.168Z,19.00
2018-04-07T11:15:00.158Z,19.08
2018-04-07T11:16:00.174Z,19.11
2018-04-07T11:17:00.102Z,19.19
2018-04-07T11:18:00.053Z,19.23
2018-04-07T11:18:59.995Z,19.22
2018-04-07T11:19:59.931Z,19.22
2018-04-07T11:20:59.917Z,19.29
2018-04-07T11:21:59.920Z,19.33
2018-04-07T11:22:59.849Z,19.31
2018-04-07T11:23:59.785Z,19.31
2018-04-07T11:24:59.776Z,19.45
2018-04-07T11:25:59.700Z,19.39
2018-04-07T11:26:59.745Z,19.51
2018-04-07T11:27:59.642Z,19.55
2018-04-07T11:28:59.610Z,19.54
2018-04-07T11:29:59.521Z,19.63
2018-04-07T11:30:59.445Z,19.67
2018-04-07T11:31:59.428Z,19.67
2018-04-07T11:32:59.357Z,19.84
2018-04-07T11:33:59.322Z,19.84
2018-04-07T11:34:59.274Z,19.81
2018-04-07T11:35:59.253Z,19.81
2018-04-07T11:36:59.218Z,19.74
2018-04-07T11:37:59.146Z,19.81
2018-04-07T11:38:59.106Z,19.88
2018-04-07T11:39:59.067Z,19.91
2018-04-07T11:40:59.027Z,19.84
2018-04-07T11:41:59.001Z,19.82
2018-04-07T11:42:58.936Z,19.89
2018-04-07T11:43:58.894Z,19.97
2018-04-07T11:44:58.857Z,19.84
2018-04-07T11:45:58.809Z,19.81
2018-04-07T11:46:58.793Z,19.94
2018-04-07T11:47:58.731Z,19.88
2018-04-07T11:48:58.685Z,19.85
2018-04-07T11:49:58.642Z,19.96
2018-04-07T11:50:58.601Z,20.00
2018-04-07T11:51:58.580Z,19.97
2018-04-07T11:52:58.519Z,20.10
2018-04-07T11:53:58.479Z,20.07
2018-04-07T11:54:58.427Z,20.14
2018-04-07T11:55:58.388Z,20.15
2018-04-07T11:56:58.368Z,20.15
2018-04-07T11:57:58.304Z,20.17
2018-04-07T11:58:58.266Z,20.01
2018-04-07T11:59:58.220Z,20.01
2018-04-07T12:00:58.181Z,20.01
2018-04-07T12:01:58.164Z,20.10
2018-04-07T12:02:58.100Z,20.09
2018-04-07T12:03:58.069Z,20.10
2018-04-07T12:04:58.008Z,20.15
2018-04-07T12:05:57.968Z,20.24
2018-04-07T12:06:57.958Z,20.29
2018-04-07T12:07:57.887Z,20.29
2018-04-07T12:08:57.844Z,20.31
2018-04-07T12:09:57.799Z,20.31
2018-04-07T12:10:57.774Z,20.26
2018-04-07T12:11:57.738Z,20.40
2018-04-07T12:12:57.677Z,20.41
2018-04-07T12:13:57.630Z,20.48
2018-04-07T12:14:57.588Z,20.44
2018-04-07T12:15:57.548Z,20.39
2018-04-07T12:16:57.545Z,20.41
2018-04-07T12:17:57.463Z,20.41
2018-04-07T12:18:57.422Z,20.39
2018-04-07T12:19:57.388Z,20.59
2018-04-07T12:20:57.340Z,20.66
2018-04-07T12:21:57.300Z,20.69
2018-04-07T12:22:57.281Z,20.66
2018-04-07T12:23:57.227Z,20.75
2018-04-07T12:24:57.172Z,20.65
2018-04-07T12:25:57.130Z,20.67
2018-04-07T12:26:57.091Z,20.69
2018-04-07T12:27:57.075Z,20.69
2018-04-07T12:28:57.004Z,20.77
2018-04-07T12:29:56.964Z,20.62
2018-04-07T12:30:56.921Z,20.71
2018-04-07T12:31:56.882Z,20.71
2018-04-07T12:32:56.866Z,20.67
2018-04-07T12:33:56.808Z,20.65
2018-04-07T12:34:56.759Z,20.56
2018-04-07T12:35:56.716Z,20.56
2018-04-07T12:36:56.673Z,20.62
2018-04-07T12:37:56.655Z,20.62
2018-04-07T12:38:56.585Z,20.55
2018-04-07T12:39:56.545Z,20.65
2018-04-07T12:40:56.509Z,20.59
2018-04-07T12:41:56.463Z,20.55
2018-04-07T12:42:56.450Z,20.62
2018-04-07T12:43:56.387Z,20.72
2018-04-07T12:44:56.339Z,20.77
2018-04-07T12:45:56.299Z,20.74
2018-04-07T12:46:56.257Z,20.74
2018-04-07T12:47:56.236Z,20.75
2018-04-07T12:48:56.173Z,20.77
2018-04-07T12:49:56.134Z,20.75
2018-04-07T12:50:56.091Z,20.72
2018-04-07T12:51:56.054Z,20.72
2018-04-07T12:52:56.037Z,20.72
2018-04-07T12:53:55.968Z,20.75
2018-04-07T12:54:55.923Z,20.77
2018-04-07T12:55:55.886Z,20.77
2018-04-07T12:56:55.845Z,20.84
2018-04-07T12:57:55.825Z,20.81
2018-04-07T12:58:55.759Z,20.78
2018-04-07T12:59:55.720Z,20.84
2018-04-07T13:00:55.677Z,20.80
2018-04-07T13:01:55.637Z,20.71
2018-04-07T13:02:55.620Z,20.90
2018-04-07T13:03:55.565Z,20.99
2018-04-07T13:04:55.521Z,20.89